createdAt,value
2018-09-28T00:01:50.978Z,0.00
2018-09-28T00:02:51.035Z,0.00
2018-09-28T00:04:44.033Z,0.00
2018-09-28T00:05:44.082Z,0.00
2018-09-28T00:07:37.066Z,0.00
2018-09-28T00:08:37.129Z,0.00
2018-09-28T00:10:30.120Z,0.00
2018-09-28T00:11:30.170Z,0.00
2018-09-28T00:13:23.154Z,0.00
2018-09-28T00:14:23.213Z,0.00
2018-09-28T00:16:16.202Z,0.00
2018-09-28T00:17:16.254Z,0.00
2018-09-28T00:19:09.258Z,0.00
2018-09-28T00:20:09.298Z,0.00
2018-09-28T00:22:02.283Z,0.00
2018-09-28T00:23:02.340Z,0.00
2018-09-28T00:24:55.329Z,0.00
2018-09-28T00:25:55.404Z,0.00
2018-09-28T00:27:48.362Z,0.00
2018-09-28T00:28:48.422Z,0.00
2018-09-28T00:30:41.416Z,0.00
2018-09-28T00:31:41.463Z,0.00
2018-09-28T00:33:34.446Z,0.00
2018-09-28T00:34:34.505Z,0.00
2018-09-28T00:36:27.494Z,0.00
2018-09-28T00:37:27.547Z,0.00
2018-09-28T00:39:21.043Z,0.00
2018-09-28T00:40:21.096Z,0.00
2018-09-28T00:42:14.088Z,0.00
2018-09-28T00:43:14.140Z,0.00
2018-09-28T00:45:07.133Z,0.00
2018-09-28T00:46:07.182Z,0.00
2018-09-28T00:48:00.170Z,0.00
2018-09-28T00:49:00.231Z,0.00
2018-09-28T00:50:53.217Z,0.00
2018-09-28T00:51:53.270Z,0.00
2018-09-28T00:53:46.257Z,0.00
2018-09-28T00:54:46.314Z,0.00
2018-09-28T00:56:39.308Z,0.00
2018-09-28T00:57:39.357Z,0.00
2018-09-28T00:59:32.339Z,0.00
2018-09-28T01:00:32.404Z,0.00
2018-09-28T01:02:25.390Z,0.00
2018-09-28T01:03:25.442Z,0.00
2018-09-28T01:05:18.443Z,0.00
2018-09-28T01:06:18.484Z,0.00
2018-09-28T01:08:11.472Z,0.00
2018-09-28T01:09:11.531Z,0.00
2018-09-28T01:11:04.517Z,0.00
2018-09-28T01:12:04.569Z,0.00
2018-09-28T01:13:57.554Z,0.00
2018-09-28T01:14:57.613Z,0.00
2018-09-28T01:16:50.601Z,0.00
2018-09-28T01:17:50.651Z,0.00
2018-09-28T01:19:43.640Z,0.00
2018-09-28T01:20:43.698Z,0.00
2018-09-28T01:22:36.688Z,0.00
2018-09-28T01:23:36.741Z,0.00
2018-09-28T01:25:29.723Z,0.00
2018-09-28T01:26:29.783Z,0.00
2018-09-28T01:28:22.774Z,0.00
2018-09-28T01:29:22.824Z,0.00
2018-09-28T01:31:15.907Z,0.00
2018-09-28T01:32:15.866Z,0.00
2018-09-28T01:34:08.849Z,0.00
2018-09-28T01:35:08.905Z,0.00
2018-09-28T01:37:01.898Z,0.00
2018-09-28T01:38:01.950Z,0.00
2018-09-28T01:39:55.443Z,0.00
2018-09-28T01:40:55.501Z,0.00
2018-09-28T01:42:48.500Z,0.00
2018-09-28T01:43:48.545Z,0.00
2018-09-28T01:45:41.535Z,0.00
2018-09-28T01:46:41.591Z,0.00
2018-09-28T01:48:34.584Z,0.00
2018-09-28T01:49:34.636Z,0.00
2018-09-28T01:51:27.618Z,0.00
2018-09-28T01:52:27.693Z,0.00
2018-09-28T01:54:20.668Z,0.00
2018-09-28T01:55:20.720Z,0.00
2018-09-28T01:57:13.711Z,0.00
2018-09-28T01:58:13.766Z,0.00
2018-09-28T02:00:06.744Z,0.00
2018-09-28T02:01:06.803Z,0.00
2018-09-28T02:02:59.791Z,0.00
2018-09-28T02:03:59.845Z,0.00
2018-09-28T02:05:52.831Z,0.00
2018-09-28T02:06:52.891Z,0.00
2018-09-28T02:08:45.883Z,0.00
2018-09-28T02:09:45.934Z,0.00
2018-09-28T02:11:38.914Z,0.00
2018-09-28T02:12:39.047Z,0.00
2018-09-28T02:14:31.965Z,0.00
2018-09-28T02:15:32.028Z,0.00
2018-09-28T02:17:25.031Z,0.00
2018-09-28T02:18:25.059Z,0.00
2018-09-28T02:20:18.046Z,0.00
2018-09-28T02:21:18.104Z,0.00
2018-09-28T02:23:11.094Z,0.00
2018-09-28T02:24:11.148Z,0.00
2018-09-28T02:26:04.131Z,0.00
2018-09-28T02:27:04.191Z,0.00
2018-09-28T02:28:57.182Z,0.00
2018-09-28T02:29:57.239Z,0.00
2018-09-28T02:31:50.222Z,0.00
2018-09-28T02:32:50.279Z,0.00
2018-09-28T02:34:43.277Z,0.00
2018-09-28T02:35:43.331Z,0.00
2018-09-28T02:37:36.315Z,0.00
2018-09-28T02:38:36.371Z,0.00
2018-09-28T02:40:29.363Z,0.00
2018-09-28T02:41:29.419Z,0.00
2018-09-28T02:43:22.413Z,0.00
2018-09-28T02:44:22.466Z,0.00
2018-09-28T02:46:15.456Z,0.00
2018-09-28T02:47:15.522Z,0.00
2018-09-28T02:49:08.508Z,0.00
2018-09-28T02:50:08.560Z,0.00
2018-09-28T02:52:01.545Z,0.00
2018-09-28T02:53:01.608Z,0.00
2018-09-28T02:54:54.601Z,0.00
2018-09-28T02:55:54.655Z,0.00
2018-09-28T02:57:47.642Z,0.00
2018-09-28T02:58:47.702Z,0.00
2018-09-28T03:00:40.692Z,0.00
2018-09-28T03:01:40.747Z,0.00
2018-09-28T03:03:33.732Z,0.00
2018-09-28T03:04:33.794Z,0.00
2018-09-28T03:06:26.849Z,0.00
2018-09-28T03:07:26.835Z,0.00
2018-09-28T03:09:19.863Z,0.00
2018-09-28T03:10:19.881Z,0.00
2018-09-28T03:12:12.862Z,0.00
2018-09-28T03:13:12.922Z,0.00
2018-09-28T03:15:05.919Z,0.00
2018-09-28T03:16:05.973Z,0.00
2018-09-28T03:17:58.957Z,0.00
2018-09-28T03:18:59.015Z,0.00
2018-09-28T03:20:52.010Z,0.00
2018-09-28T03:21:52.061Z,0.00
2018-09-28T03:23:45.048Z,0.00
2018-09-28T03:24:45.106Z,0.00
2018-09-28T03:26:38.151Z,0.00
2018-09-28T03:27:38.203Z,0.00
2018-09-28T03:29:31.884Z,0.00
2018-09-28T03:30:31.247Z,0.00
2018-09-28T03:32:24.226Z,0.00
2018-09-28T03:33:24.286Z,0.00
2018-09-28T03:35:17.279Z,0.00
2018-09-28T03:36:17.328Z,0.00
2018-09-28T03:38:10.312Z,0.00
2018-09-28T03:39:10.371Z,0.00
2018-09-28T03:41:03.360Z,0.00
2018-09-28T03:42:03.414Z,0.00
2018-09-28T03:43:56.401Z,0.00
2018-09-28T03:44:56.463Z,0.00
2018-09-28T03:46:49.454Z,0.00
2018-09-28T03:47:49.510Z,0.00
2018-09-28T03:49:42.502Z,0.00
2018-09-28T03:50:42.558Z,0.00
2018-09-28T03:52:35.552Z,0.00
2018-09-28T03:53:35.606Z,0.00
2018-09-28T03:55:28.618Z,0.00
2018-09-28T03:56:28.655Z,0.00
2018-09-28T03:58:21.640Z,0.00
2018-09-28T03:59:21.702Z,0.00
2018-09-28T04:01:14.690Z,0.00
2018-09-28T04:02:14.744Z,0.00
2018-09-28T04:04:07.723Z,0.00
2018-09-28T04:05:07.787Z,0.00
2018-09-28T04:07:00.777Z,0.00
2018-09-28T04:08:00.832Z,0.00
2018-09-28T04:09:53.814Z,0.00
2018-09-28T04:10:53.876Z,0.00
2018-09-28T04:12:46.868Z,0.00
2018-09-28T04:13:46.924Z,0.00
2018-09-28T04:15:39.909Z,0.00
2018-09-28T04:16:39.969Z,0.00
2018-09-28T04:18:32.963Z,0.00
2018-09-28T04:19:33.010Z,0.00
2018-09-28T04:21:26.002Z,0.00
2018-09-28T04:22:26.057Z,0.00
2018-09-28T04:24:19.037Z,0.00
2018-09-28T04:25:19.097Z,0.00
2018-09-28T04:27:12.092Z,0.00
2018-09-28T04:28:12.139Z,0.00
2018-09-28T04:30:05.124Z,0.00
2018-09-28T04:31:05.183Z,0.00
2018-09-28T04:32:58.187Z,0.00
2018-09-28T04:33:58.228Z,0.00
2018-09-28T04:35:51.220Z,0.00
2018-09-28T04:36:51.280Z,0.00
2018-09-28T04:38:44.274Z,0.00
2018-09-28T04:39:44.326Z,0.00
2018-09-28T04:41:37.316Z,0.00
2018-09-28T04:42:37.377Z,0.00
2018-09-28T04:44:30.370Z,0.00
2018-09-28T04:45:30.433Z,0.00
2018-09-28T04:47:23.412Z,0.00
2018-09-28T04:48:23.467Z,0.00
2018-09-28T04:50:16.452Z,0.00
2018-09-28T04:51:16.512Z,0.00
2018-09-28T04:53:09.505Z,0.00
2018-09-28T04:54:09.555Z,0.00
2018-09-28T04:56:02.538Z,0.00
2018-09-28T04:57:02.597Z,0.00
2018-09-28T04:58:55.592Z,0.00
2018-09-28T04:59:55.646Z,0.00
2018-09-28T05:01:48.646Z,0.00
2018-09-28T05:02:48.699Z,0.00
2018-09-28T05:04:41.702Z,0.00
2018-09-28T05:05:41.750Z,0.00
2018-09-28T05:07:34.746Z,0.00
2018-09-28T05:08:34.794Z,4.00
2018-09-28T05:10:27.782Z,4.00
2018-09-28T05:11:27.839Z,8.00
2018-09-28T05:13:20.849Z,16.00
2018-09-28T05:14:20.894Z,20.00
2018-09-28T05:16:13.878Z,36.00
2018-09-28T05:17:13.939Z,44.00
2018-09-28T05:19:07.433Z,56.00
2018-09-28T05:20:07.484Z,60.00
2018-09-28T05:22:00.472Z,68.00
2018-09-28T05:23:00.538Z,92.00
2018-09-28T05:24:53.525Z,132.00
2018-09-28T05:25:53.574Z,152.00
2018-09-28T05:27:46.558Z,180.00
2018-09-28T05:28:46.617Z,184.00
2018-09-28T05:30:44.973Z,184.00
2018-09-28T05:31:39.754Z,188.00
2018-09-28T05:33:32.663Z,204.00
2018-09-28T05:34:32.712Z,196.00
2018-09-28T05:36:25.696Z,200.00
2018-09-28T05:37:25.756Z,212.00
2018-09-28T05:39:18.780Z,284.00
2018-09-28T05:40:18.805Z,340.00
2018-09-28T05:42:11.791Z,348.00
2018-09-28T05:43:11.850Z,312.00
2018-09-28T05:45:04.848Z,328.00
2018-09-28T05:46:04.893Z,348.00
2018-09-28T05:47:57.878Z,364.00
2018-09-28T05:48:57.937Z,384.00
2018-09-28T05:50:50.935Z,332.00
2018-09-28T05:51:50.989Z,316.00
2018-09-28T05:53:43.979Z,332.00
2018-09-28T05:54:44.032Z,340.00
2018-09-28T05:56:37.029Z,384.00
2018-09-28T05:57:37.075Z,480.00
2018-09-28T05:59:30.070Z,708.00
2018-09-28T06:00:30.121Z,792.00
2018-09-28T06:02:23.114Z,796.00
2018-09-28T06:03:23.167Z,640.00
2018-09-28T06:05:16.165Z,632.00
2018-09-28T06:06:16.214Z,648.00
2018-09-28T06:08:09.201Z,548.00
2018-09-28T06:09:09.266Z,424.00
2018-09-28T06:11:02.254Z,344.00
2018-09-28T06:12:02.307Z,340.00
2018-09-28T06:13:55.295Z,312.00
2018-09-28T06:14:55.353Z,416.00
2018-09-28T06:16:48.390Z,444.00
2018-09-28T06:17:48.418Z,392.00
2018-09-28T06:19:41.392Z,248.00
2018-09-28T06:20:41.447Z,280.00
2018-09-28T06:22:34.444Z,296.00
2018-09-28T06:23:34.507Z,376.00
2018-09-28T06:25:27.560Z,972.00
2018-09-28T06:26:27.542Z,1140.00
2018-09-28T06:28:20.528Z,896.00
2018-09-28T06:29:20.587Z,912.00
2018-09-28T06:31:13.595Z,1144.00
2018-09-28T06:32:13.635Z,1448.00
2018-09-28T06:34:06.619Z,1100.00
2018-09-28T06:35:06.678Z,1108.00
2018-09-28T06:36:59.673Z,1024.00
2018-09-28T06:37:59.724Z,1024.00
2018-09-28T06:39:53.224Z,1200.00
2018-09-28T06:40:53.276Z,1056.00
2018-09-28T06:42:46.273Z,784.00
2018-09-28T06:43:46.324Z,760.00
2018-09-28T06:45:39.836Z,920.00
2018-09-28T06:46:39.369Z,952.00
2018-09-28T06:48:32.365Z,1032.00
2018-09-28T06:49:32.420Z,1172.00
2018-09-28T06:51:25.469Z,1260.00
2018-09-28T06:52:25.466Z,1620.00
2018-09-28T06:54:18.567Z,1528.00
2018-09-28T06:55:18.519Z,1812.00
2018-09-28T06:57:11.506Z,1416.00
2018-09-28T06:58:11.605Z,1216.00
2018-09-28T07:00:04.597Z,904.00
2018-09-28T07:01:04.605Z,1104.00
2018-09-28T07:02:57.596Z,1356.00
2018-09-28T07:03:57.780Z,1456.00
2018-09-28T07:05:50.655Z,1780.00
2018-09-28T07:06:50.698Z,1536.00
2018-09-28T07:08:43.707Z,1744.00
2018-09-28T07:09:43.748Z,2004.00
2018-09-28T07:11:36.741Z,2720.00
2018-09-28T07:12:36.796Z,3364.00
2018-09-28T07:14:29.790Z,3996.00
2018-09-28T07:15:29.847Z,4016.00
2018-09-28T07:17:22.838Z,4040.00
2018-09-28T07:18:22.927Z,4608.00
2018-09-28T07:20:15.878Z,5628.00
2018-09-28T07:21:15.938Z,5416.00
2018-09-28T07:23:08.934Z,6232.00
2018-09-28T07:24:09.004Z,6236.00
2018-09-28T07:26:01.979Z,6772.00
2018-09-28T07:27:02.044Z,7452.00
2018-09-28T07:28:55.030Z,7588.00
2018-09-28T07:29:55.156Z,7360.00
2018-09-28T07:31:48.073Z,6664.00
2018-09-28T07:32:48.133Z,5644.00
2018-09-28T07:34:41.126Z,4548.00
2018-09-28T07:35:41.190Z,4856.00
2018-09-28T07:37:34.173Z,5980.00
2018-09-28T07:38:34.254Z,6324.00
2018-09-28T07:40:27.764Z,5920.00
2018-09-28T07:41:27.785Z,5100.00
2018-09-28T07:43:20.780Z,4996.00
2018-09-28T07:44:20.836Z,5716.00
2018-09-28T07:46:13.831Z,7220.00
2018-09-28T07:47:13.892Z,7012.00
2018-09-28T07:49:06.940Z,5636.00
2018-09-28T07:50:06.939Z,5156.00
2018-09-28T07:51:59.993Z,4916.00
2018-09-28T07:52:59.988Z,4852.00
2018-09-28T07:54:52.983Z,4640.00
2018-09-28T07:55:53.090Z,5120.00
2018-09-28T07:57:46.019Z,6616.00
2018-09-28T07:58:46.078Z,7476.00
2018-09-28T08:00:39.073Z,7796.00
2018-09-28T08:01:39.124Z,7016.00
2018-09-28T08:03:32.113Z,5520.00
2018-09-28T08:04:32.170Z,5144.00
2018-09-28T08:06:25.177Z,5136.00
2018-09-28T08:07:25.228Z,5144.00
2018-09-28T08:09:18.224Z,5068.00
2018-09-28T08:10:18.293Z,5236.00
2018-09-28T08:12:11.270Z,6344.00
2018-09-28T08:13:11.335Z,7036.00
2018-09-28T08:15:04.324Z,6608.00
2018-09-28T08:16:04.376Z,5548.00
2018-09-28T08:17:57.387Z,4784.00
2018-09-28T08:18:57.421Z,4856.00
2018-09-28T08:20:50.425Z,5056.00
2018-09-28T08:21:50.471Z,5272.00
2018-09-28T08:23:43.490Z,5408.00
2018-09-28T08:24:43.533Z,5404.00
2018-09-28T08:26:36.533Z,5540.00
2018-09-28T08:27:36.583Z,5916.00
2018-09-28T08:29:29.572Z,7028.00
2018-09-28T08:30:29.706Z,7940.00
2018-09-28T08:32:22.628Z,8896.00
2018-09-28T08:33:22.681Z,8936.00
2018-09-28T08:35:15.681Z,6908.00
2018-09-28T08:36:15.783Z,5740.00
2018-09-28T08:38:08.727Z,5740.00
2018-09-28T08:39:08.780Z,5780.00
2018-09-28T08:41:01.778Z,6072.00
2018-09-28T08:42:01.825Z,6144.00
2018-09-28T08:43:54.823Z,5580.00
2018-09-28T08:44:54.879Z,5776.00
2018-09-28T08:46:47.878Z,7044.00
2018-09-28T08:47:47.932Z,7720.00
2018-09-28T08:49:40.918Z,8296.00
2018-09-28T08:50:40.994Z,7916.00
2018-09-28T08:52:33.975Z,7560.00
2018-09-28T08:53:34.024Z,6936.00
2018-09-28T08:55:27.018Z,7496.00
2018-09-28T08:56:27.077Z,8624.00
2018-09-28T08:58:20.062Z,9216.00
2018-09-28T08:59:20.120Z,8816.00
2018-09-28T09:01:13.117Z,8348.00
2018-09-28T09:02:13.204Z,8600.00
2018-09-28T09:04:06.175Z,9540.00
2018-09-28T09:05:06.238Z,9440.00
2018-09-28T09:06:59.240Z,9668.00
2018-09-28T09:07:59.284Z,10200.00
2018-09-28T09:09:52.323Z,10944.00
2018-09-28T09:10:52.337Z,10556.00
2018-09-28T09:12:45.345Z,9620.00
2018-09-28T09:13:45.403Z,8820.00
2018-09-28T09:15:38.383Z,6976.00
2018-09-28T09:16:38.436Z,6460.00
2018-09-28T09:18:31.448Z,5968.00
2018-09-28T09:19:31.482Z,6116.00
2018-09-28T09:21:24.493Z,6312.00
2018-09-28T09:22:24.548Z,6452.00
2018-09-28T09:24:17.523Z,7584.00
2018-09-28T09:25:17.581Z,8496.00
2018-09-28T09:27:10.575Z,7620.00
2018-09-28T09:28:10.631Z,8604.00
2018-09-28T09:30:03.644Z,8028.00
2018-09-28T09:31:03.680Z,8096.00
2018-09-28T09:32:56.673Z,7860.00
2018-09-28T09:33:56.728Z,7856.00
2018-09-28T09:35:49.708Z,7688.00
2018-09-28T09:36:49.773Z,7568.00
2018-09-28T09:38:42.769Z,7336.00
2018-09-28T09:39:42.825Z,7288.00
2018-09-28T09:41:35.815Z,7300.00
2018-09-28T09:42:35.935Z,7388.00
2018-09-28T09:44:28.870Z,6676.00
2018-09-28T09:45:28.925Z,6444.00
2018-09-28T09:47:21.931Z,7084.00
2018-09-28T09:48:22.036Z,7512.00
2018-09-28T09:50:14.976Z,8592.00
2018-09-28T09:51:15.038Z,9224.00
2018-09-28T09:53:08.045Z,10136.00
2018-09-28T09:54:08.097Z,10296.00
2018-09-28T09:56:01.092Z,10392.00
2018-09-28T09:57:01.155Z,10608.00
2018-09-28T09:58:54.156Z,10812.00
2018-09-28T09:59:54.212Z,10812.00
2018-09-28T10:01:47.208Z,10728.00
2018-09-28T10:02:47.269Z,10784.00
2018-09-28T10:04:40.268Z,11180.00
2018-09-28T10:05:40.326Z,11100.00
2018-09-28T10:07:33.324Z,10588.00
2018-09-28T10:08:33.387Z,10284.00
2018-09-28T10:10:26.385Z,9940.00
2018-09-28T10:11:26.441Z,10528.00
2018-09-28T10:13:19.438Z,11088.00
2018-09-28T10:14:19.494Z,11176.00
2018-09-28T10:16:12.592Z,11556.00
2018-09-28T10:17:12.549Z,11796.00
2018-09-28T10:19:05.706Z,12172.00
2018-09-28T10:20:05.606Z,12892.00
2018-09-28T10:21:58.602Z,13120.00
2018-09-28T10:22:58.660Z,13132.00
2018-09-28T10:24:51.660Z,13192.00
2018-09-28T10:25:51.717Z,13336.00
2018-09-28T10:27:44.916Z,14152.00
2018-09-28T10:28:44.831Z,14240.00
2018-09-28T10:30:37.789Z,13292.00
2018-09-28T10:31:37.820Z,12476.00
2018-09-28T10:33:30.862Z,10780.00
2018-09-28T10:34:30.888Z,10200.00
2018-09-28T10:36:23.880Z,9480.00
2018-09-28T10:37:23.930Z,9844.00
2018-09-28T10:39:17.013Z,10372.00
2018-09-28T10:40:17.059Z,10316.00
2018-09-28T10:42:10.826Z,10756.00
2018-09-28T10:43:10.039Z,10392.00
2018-09-28T10:45:03.159Z,11384.00
2018-09-28T10:46:03.215Z,12440.00
2018-09-28T10:47:56.319Z,13036.00
2018-09-28T10:48:56.267Z,12516.00
2018-09-28T10:50:49.962Z,11664.00
2018-09-28T10:51:49.495Z,11464.00
2018-09-28T10:53:42.491Z,12140.00
2018-09-28T10:54:42.478Z,12708.00
2018-09-28T10:56:35.624Z,13536.00
2018-09-28T10:57:35.586Z,13672.00
2018-09-28T10:59:28.538Z,13524.00
2018-09-28T11:00:28.605Z,13540.00
2018-09-28T11:02:21.582Z,13476.00
2018-09-28T11:03:21.659Z,13516.00
2018-09-28T11:05:14.695Z,13684.00
2018-09-28T11:06:14.692Z,13036.00
2018-09-28T11:08:07.689Z,11940.00
2018-09-28T11:09:07.810Z,11560.00
2018-09-28T11:11:00.754Z,10896.00
2018-09-28T11:12:00.807Z,10636.00
2018-09-28T11:13:53.796Z,10800.00
2018-09-28T11:14:53.861Z,10888.00
2018-09-28T11:16:46.912Z,12092.00
2018-09-28T11:17:46.913Z,13116.00
2018-09-28T11:19:39.903Z,14452.00
2018-09-28T11:20:39.974Z,14660.00
2018-09-28T11:22:33.030Z,14132.00
2018-09-28T11:23:33.049Z,13308.00
2018-09-28T11:25:26.121Z,10996.00
2018-09-28T11:26:26.183Z,10152.00
2018-09-28T11:28:19.139Z,9056.00
2018-09-28T11:29:19.194Z,9392.00
2018-09-28T11:31:12.217Z,8348.00
2018-09-28T11:32:12.334Z,7140.00
2018-09-28T11:34:05.805Z,6284.00
2018-09-28T11:35:05.471Z,6060.00
2018-09-28T11:36:58.476Z,6048.00
2018-09-28T11:37:58.523Z,6196.00
2018-09-28T11:39:54.529Z,6500.00
2018-09-28T11:40:53.924Z,6880.00
2018-09-28T11:42:46.580Z,6672.00
2018-09-28T11:43:46.609Z,6468.00
2018-09-28T11:45:40.818Z,6716.00
2018-09-28T11:46:40.103Z,6588.00
2018-09-28T11:48:32.796Z,6648.00
2018-09-28T11:49:32.720Z,7108.00
2018-09-28T11:51:26.435Z,7180.00
2018-09-28T11:52:26.294Z,6124.00
2018-09-28T11:54:19.275Z,5636.00
2018-09-28T11:55:19.334Z,5412.00
2018-09-28T11:57:12.427Z,4952.00
2018-09-28T11:58:12.399Z,5212.00
2018-09-28T12:00:05.540Z,5808.00
2018-09-28T12:01:05.455Z,6084.00
2018-09-28T12:02:58.502Z,5604.00
2018-09-28T12:03:58.562Z,5340.00
2018-09-28T12:05:51.665Z,4656.00
2018-09-28T12:06:51.756Z,4504.00
2018-09-28T12:08:44.747Z,4448.00
2018-09-28T12:09:44.707Z,4404.00
2018-09-28T12:11:37.781Z,4572.00
2018-09-28T12:12:37.793Z,4888.00
2018-09-28T12:14:30.727Z,4788.00
2018-09-28T12:15:30.804Z,4636.00
2018-09-28T12:17:23.785Z,5036.00
2018-09-28T12:18:23.903Z,4792.00
2018-09-28T12:20:16.958Z,3952.00
2018-09-28T12:21:16.939Z,3796.00
2018-09-28T12:23:09.947Z,3960.00
2018-09-28T12:24:09.970Z,3960.00
2018-09-28T12:26:03.015Z,3740.00
2018-09-28T12:27:03.004Z,4140.00
2018-09-28T12:28:56.126Z,6616.00
2018-09-28T12:29:56.067Z,6392.00
2018-09-28T12:31:49.182Z,5208.00
2018-09-28T12:32:49.113Z,6064.00
2018-09-28T12:34:42.112Z,6980.00
2018-09-28T12:35:42.198Z,6352.00
2018-09-28T12:37:35.339Z,5708.00
2018-09-28T12:38:35.229Z,5304.00
2018-09-28T12:40:28.231Z,3452.00
2018-09-28T12:41:28.288Z,2656.00
2018-09-28T12:43:21.950Z,2856.00
2018-09-28T12:44:21.897Z,2880.00
2018-09-28T12:46:14.866Z,2964.00
2018-09-28T12:47:14.893Z,2744.00
2018-09-28T12:49:07.977Z,2900.00
2018-09-28T12:50:07.978Z,3068.00
2018-09-28T12:52:00.931Z,4076.00
2018-09-28T12:53:01.238Z,5004.00
2018-09-28T12:54:54.037Z,5984.00
2018-09-28T12:55:54.049Z,5784.00
2018-09-28T12:57:47.550Z,4024.00
2018-09-28T12:58:47.609Z,4952.00
2018-09-28T13:00:40.681Z,8232.00
2018-09-28T13:01:40.662Z,9508.00
2018-09-28T13:03:33.710Z,9528.00
2018-09-28T13:04:33.730Z,8928.00
2018-09-28T13:06:26.770Z,8120.00
2018-09-28T13:07:26.782Z,8348.00
2018-09-28T13:09:19.771Z,8376.00
2018-09-28T13:10:19.832Z,7812.00
2018-09-28T13:12:12.925Z,7592.00
2018-09-28T13:13:12.886Z,7528.00
2018-09-28T13:15:06.222Z,6892.00
2018-09-28T13:16:05.935Z,6252.00
2018-09-28T13:17:58.956Z,5344.00
2018-09-28T13:18:59.018Z,4700.00
2018-09-28T13:20:52.031Z,3812.00
2018-09-28T13:21:52.117Z,3476.00
2018-09-28T13:23:45.074Z,2964.00
2018-09-28T13:24:45.241Z,2852.00
2018-09-28T13:26:38.180Z,2732.00
2018-09-28T13:27:38.216Z,2944.00
2018-09-28T13:29:31.201Z,3108.00
2018-09-28T13:30:31.268Z,3220.00
2018-09-28T13:32:24.337Z,4148.00
2018-09-28T13:33:24.298Z,5048.00
2018-09-28T13:35:17.294Z,6580.00
2018-09-28T13:36:17.637Z,7092.00
2018-09-28T13:38:10.359Z,7720.00
2018-09-28T13:39:10.462Z,8144.00
2018-09-28T13:41:03.409Z,8184.00
2018-09-28T13:42:03.455Z,7684.00
2018-09-28T13:43:56.448Z,7108.00
2018-09-28T13:44:56.512Z,6752.00
2018-09-28T13:46:49.555Z,7308.00
2018-09-28T13:47:49.565Z,7320.00
2018-09-28T13:49:42.561Z,7480.00
2018-09-28T13:50:42.630Z,7284.00
2018-09-28T13:52:35.667Z,6780.00
2018-09-28T13:53:35.676Z,6380.00
2018-09-28T13:55:28.670Z,5700.00
2018-09-28T13:56:28.756Z,5740.00
2018-09-28T13:58:21.780Z,5068.00
2018-09-28T13:59:21.777Z,4800.00
2018-09-28T14:01:14.764Z,4076.00
2018-09-28T14:02:14.861Z,3628.00
2018-09-28T14:04:07.847Z,3896.00
2018-09-28T14:05:07.882Z,3412.00
2018-09-28T14:07:00.890Z,3236.00
2018-09-28T14:08:00.930Z,3148.00
2018-09-28T14:09:53.926Z,2808.00
2018-09-28T14:10:53.987Z,2852.00
2018-09-28T14:12:47.043Z,2724.00
2018-09-28T14:13:47.036Z,2716.00
2018-09-28T14:15:40.034Z,2572.00
2018-09-28T14:16:40.150Z,2516.00
2018-09-28T14:18:33.127Z,2696.00
2018-09-28T14:19:33.155Z,2808.00
2018-09-28T14:21:26.151Z,2872.00
2018-09-28T14:22:26.277Z,2876.00
2018-09-28T14:24:19.224Z,2616.00
2018-09-28T14:25:19.269Z,2444.00
2018-09-28T14:27:12.277Z,2336.00
2018-09-28T14:28:12.347Z,2256.00
2018-09-28T14:30:05.389Z,2272.00
2018-09-28T14:31:05.379Z,2272.00
2018-09-28T14:32:58.368Z,2236.00
2018-09-28T14:33:58.429Z,2200.00
2018-09-28T14:35:51.427Z,2132.00
2018-09-28T14:36:51.481Z,2124.00
2018-09-28T14:38:44.535Z,2116.00
2018-09-28T14:39:44.531Z,2120.00
2018-09-28T14:41:37.529Z,2096.00
2018-09-28T14:42:37.591Z,2068.00
2018-09-28T14:44:30.579Z,2036.00
2018-09-28T14:45:30.630Z,2064.00
2018-09-28T14:47:23.618Z,2132.00
2018-09-28T14:48:23.803Z,2240.00
2018-09-28T14:50:16.678Z,2332.00
2018-09-28T14:51:16.727Z,2348.00
2018-09-28T14:53:09.712Z,2360.00
2018-09-28T14:54:09.815Z,2228.00
2018-09-28T14:56:02.771Z,2060.00
2018-09-28T14:57:02.822Z,2156.00
2018-09-28T14:58:55.829Z,2256.00
2018-09-28T14:59:55.940Z,2176.00
2018-09-28T15:01:48.918Z,2128.00
2018-09-28T15:02:49.123Z,2232.00
2018-09-28T15:04:42.059Z,2196.00
2018-09-28T15:05:42.032Z,1880.00
2018-09-28T15:07:35.058Z,1504.00
2018-09-28T15:08:35.134Z,1436.00
2018-09-28T15:10:28.137Z,1416.00
2018-09-28T15:11:28.140Z,1416.00
2018-09-28T15:13:21.121Z,1420.00
2018-09-28T15:14:21.199Z,1420.00
2018-09-28T15:16:14.194Z,1432.00
2018-09-28T15:17:14.228Z,1436.00
2018-09-28T15:19:07.225Z,1464.00
2018-09-28T15:20:07.283Z,1484.00
2018-09-28T15:22:00.277Z,1528.00
2018-09-28T15:23:00.335Z,1556.00
2018-09-28T15:24:53.322Z,1612.00
2018-09-28T15:25:53.378Z,1644.00
2018-09-28T15:27:46.365Z,1740.00
2018-09-28T15:28:46.420Z,1780.00
2018-09-28T15:30:39.416Z,1836.00
2018-09-28T15:31:39.478Z,1896.00
2018-09-28T15:33:32.470Z,2132.00
2018-09-28T15:34:32.521Z,2368.00
2018-09-28T15:36:25.519Z,2876.00
2018-09-28T15:37:25.570Z,3296.00
2018-09-28T15:39:18.557Z,4388.00
2018-09-28T15:40:18.616Z,5068.00
2018-09-28T15:42:11.610Z,6124.00
2018-09-28T15:43:11.664Z,5128.00
2018-09-28T15:45:04.650Z,3460.00
2018-09-28T15:46:04.710Z,3016.00
2018-09-28T15:47:57.852Z,2024.00
2018-09-28T15:48:57.762Z,1708.00
2018-09-28T15:50:50.755Z,1624.00
2018-09-28T15:51:50.807Z,1628.00
2018-09-28T15:53:43.804Z,1604.00
2018-09-28T15:54:43.853Z,1636.00
2018-09-28T15:56:36.853Z,1680.00
2018-09-28T15:57:36.904Z,1800.00
2018-09-28T15:59:29.899Z,2004.00
2018-09-28T16:00:29.957Z,2008.00
2018-09-28T16:02:22.938Z,1860.00
2018-09-28T16:03:22.999Z,1720.00
2018-09-28T16:05:15.988Z,1584.00
2018-09-28T16:06:16.045Z,1504.00
2018-09-28T16:08:09.032Z,1320.00
2018-09-28T16:09:09.093Z,1280.00
2018-09-28T16:11:02.090Z,1276.00
2018-09-28T16:12:02.207Z,1288.00
2018-09-28T16:13:55.155Z,1308.00
2018-09-28T16:14:55.211Z,1304.00
2018-09-28T16:16:48.201Z,1288.00
2018-09-28T16:17:48.259Z,1272.00
2018-09-28T16:19:41.251Z,1252.00
2018-09-28T16:20:41.308Z,1240.00
2018-09-28T16:22:34.292Z,1204.00
2018-09-28T16:23:34.364Z,1196.00
2018-09-28T16:25:27.342Z,1172.00
2018-09-28T16:26:27.397Z,1168.00
2018-09-28T16:28:20.386Z,1140.00
2018-09-28T16:29:20.446Z,1108.00
2018-09-28T16:31:13.437Z,1044.00
2018-09-28T16:32:13.491Z,1020.00
2018-09-28T16:34:06.496Z,1008.00
2018-09-28T16:35:06.540Z,980.00
2018-09-28T16:36:59.539Z,912.00
2018-09-28T16:37:59.598Z,880.00
2018-09-28T16:39:52.598Z,840.00
2018-09-28T16:40:52.652Z,820.00
2018-09-28T16:42:45.644Z,792.00
2018-09-28T16:43:45.705Z,784.00
2018-09-28T16:45:38.699Z,776.00
2018-09-28T16:46:38.753Z,768.00
2018-09-28T16:48:31.739Z,764.00
2018-09-28T16:49:31.800Z,740.00
2018-09-28T16:51:24.795Z,672.00
2018-09-28T16:52:24.845Z,648.00
2018-09-28T16:54:17.832Z,588.00
2018-09-28T16:55:17.892Z,556.00
2018-09-28T16:57:11.401Z,508.00
2018-09-28T16:58:11.448Z,484.00
2018-09-28T17:00:04.450Z,448.00
2018-09-28T17:01:04.492Z,424.00
2018-09-28T17:02:57.478Z,388.00
2018-09-28T17:03:57.537Z,368.00
2018-09-28T17:05:50.533Z,328.00
2018-09-28T17:06:50.591Z,308.00
2018-09-28T17:08:43.575Z,272.00
2018-09-28T17:09:43.634Z,256.00
2018-09-28T17:11:36.628Z,220.00
2018-09-28T17:12:36.686Z,204.00
2018-09-28T17:14:29.680Z,172.00
2018-09-28T17:15:29.726Z,156.00
2018-09-28T17:17:22.716Z,128.00
2018-09-28T17:18:22.771Z,116.00
2018-09-28T17:20:15.785Z,96.00
2018-09-28T17:21:15.818Z,84.00
2018-09-28T17:23:08.801Z,64.00
2018-09-28T17:24:08.863Z,60.00
2018-09-28T17:26:01.849Z,44.00
2018-09-28T17:27:01.904Z,40.00
2018-09-28T17:28:54.891Z,28.00
2018-09-28T17:29:54.948Z,24.00
2018-09-28T17:31:47.941Z,20.00
2018-09-28T17:32:47.992Z,12.00
2018-09-28T17:34:40.994Z,8.00
2018-09-28T17:35:41.045Z,8.00
2018-09-28T17:37:34.080Z,8.00
2018-09-28T17:38:34.091Z,8.00
2018-09-28T17:40:27.077Z,4.00
2018-09-28T17:41:27.208Z,4.00
2018-09-28T17:43:20.131Z,4.00
2018-09-28T17:44:20.182Z,4.00
2018-09-28T17:46:13.187Z,4.00
2018-09-28T17:47:13.228Z,0.00
2018-09-28T17:49:06.215Z,0.00
2018-09-28T17:50:06.272Z,0.00
2018-09-28T17:51:59.259Z,0.00
2018-09-28T17:52:59.315Z,0.00
2018-09-28T17:54:52.301Z,0.00
2018-09-28T17:55:52.359Z,0.00
2018-09-28T17:57:45.869Z,0.00
2018-09-28T17:58:45.912Z,0.00
2018-09-28T18:00:38.898Z,0.00